Time;durP1;ratioP1;P1;durP2;ratioP2;P2;SDS_P1;SDS_P2;PMS_P1;PMS_P2;Temp;Humidity;BMP_temperature;BMP_pressure;BME280_temperature;BME280_humidity;BME280_pressure;Samples;Min_cycle;Max_cycle;Signal;HPM_P1;HPM_P2
2024/03/17 00:07:35;;;;;;;36.25;15.25;;;;;;;10.92;100.00;100792.78;31827072;27;20062;-74
2024/03/17 00:22:40;;;;;;;40.03;17.10;;;;;;;11.15;100.00;100787.47;31777812;27;20044;-73
2024/03/17 00:37:41;;;;;;;46.10;18.20;;;;;;;11.12;100.00;100777.41;31785119;27;20076;-73
2024/03/17 00:52:42;;;;;;;55.43;20.93;;;;;;;11.16;100.00;100769.22;31801787;27;20093;-74
2024/03/17 01:26:35;;;;;;;64.80;22.30;;;;;;;11.47;100.00;100759.16;31951292;27;309421;-77
2024/03/17 01:41:37;;;;;;;58.22;22.48;;;;;;;11.35;100.00;100757.75;31832879;27;20086;-76
2024/03/17 01:56:39;;;;;;;59.10;22.23;;;;;;;11.26;100.00;100758.25;31849584;27;20047;-77
2024/03/17 02:11:40;;;;;;;62.30;22.33;;;;;;;11.06;100.00;100751.91;31803752;27;20070;-76
2024/03/17 02:26:40;;;;;;;56.90;21.13;;;;;;;10.95;100.00;100762.09;31685845;27;20063;-76
2024/03/17 02:41:45;;;;;;;60.05;22.50;;;;;;;11.13;100.00;100770.03;31741950;27;20511;-78
2024/03/17 02:56:46;;;;;;;59.97;21.17;;;;;;;10.95;100.00;100762.09;31723625;27;20039;-78
2024/03/17 03:11:47;;;;;;;69.17;23.00;;;;;;;10.86;100.00;100759.09;31708944;27;20048;-78
2024/03/17 03:26:48;;;;;;;62.08;20.67;;;;;;;10.73;100.00;100744.47;31723189;27;20090;-77
2024/03/17 03:41:49;;;;;;;63.13;21.90;;;;;;;10.58;100.00;100760.91;31683224;27;20511;-78
2024/03/17 03:56:50;;;;;;;57.73;21.60;;;;;;;10.33;100.00;100765.00;31671623;27;20514;-80
2024/03/17 04:11:52;;;;;;;54.85;20.85;;;;;;;10.35;100.00;100757.25;31703002;27;20417;-80
2024/03/17 04:26:53;;;;;;;63.63;22.67;;;;;;;10.35;100.00;100760.72;31718841;27;20052;-78
2024/03/17 04:41:54;;;;;;;64.70;21.27;;;;;;;10.19;100.00;100750.38;31707623;27;20063;-77
2024/03/17 04:56:55;;;;;;;64.80;26.87;;;;;;;10.48;100.00;100750.91;31722092;27;20051;-77
2024/03/17 05:11:56;;;;;;;65.53;23.63;;;;;;;10.53;100.00;100758.63;31708698;28;20479;-76
2024/03/17 05:26:57;;;;;;;66.88;22.25;;;;;;;11.30;100.00;100765.59;31727281;28;20070;-78
2024/03/17 05:41:58;;;;;;;69.97;24.52;;;;;;;11.53;100.00;100779.28;31711524;28;20081;-78
2024/03/17 05:56:59;;;;;;;68.97;22.57;;;;;;;11.51;100.00;100784.34;31687342;27;20492;-78
2024/03/17 06:12:00;;;;;;;78.55;23.83;;;;;;;11.68;100.00;100788.78;31741456;27;20086;-79
2024/03/17 06:27:01;;;;;;;59.87;22.00;;;;;;;11.86;100.00;100789.34;31693216;27;20469;-78
2024/03/17 06:42:03;;;;;;;64.97;22.77;;;;;;;11.01;100.00;100787.66;31685023;27;20059;-78
2024/03/17 06:57:04;;;;;;;56.87;21.70;;;;;;;11.00;100.00;100786.09;31699619;27;20056;-79
2024/03/17 07:12:06;;;;;;;44.93;17.47;;;;;;;11.02;100.00;100783.75;31700377;27;20093;-79
2024/03/17 07:27:12;;;;;;;37.10;14.83;;;;;;;11.30;100.00;100776.47;31736477;27;20462;-79
2024/03/17 07:42:13;;;;;;;;;;;;;;;11.48;100.00;100766.91;31690158;27;20055;-79
2024/03/17 07:57:14;;;;;;;30.63;13.43;;;;;;;11.67;100.00;100770.94;31686013;27;19963;-82
2024/03/17 08:12:15;;;;;;;32.77;12.43;;;;;;;11.89;100.00;100764.03;31663624;28;20059;-82
2024/03/17 08:27:16;;;;;;;26.98;12.30;;;;;;;12.04;100.00;100752.97;31667077;28;20130;-81
2024/03/17 08:42:17;;;;;;;28.97;13.17;;;;;;;12.93;100.00;100735.84;31674253;27;20058;-81
2024/03/17 08:57:18;;;;;;;24.37;10.40;;;;;;;13.98;100.00;100710.22;31701798;27;20043;-81
2024/03/17 09:12:19;;;;;;;21.23;10.17;;;;;;;14.87;100.00;100718.91;31765213;28;20048;-83
2024/03/17 09:27:22;;;;;;;25.92;11.90;;;;;;;15.40;100.00;100710.34;31671566;27;20553;-80
2024/03/17 09:42:23;;;;;;;24.63;10.00;;;;;;;16.02;97.70;100700.63;31683107;27;20187;-79
2024/03/17 09:57:25;;;;;;;20.27;9.00;;;;;;;15.77;88.92;100695.19;31728137;27;20043;-83
2024/03/17 10:12:27;;;;;;;22.10;8.23;;;;;;;15.73;80.86;100684.34;31679864;28;20488;-80
2024/03/17 10:27:28;;;;;;;13.63;5.67;;;;;;;15.88;69.00;100679.16;31672912;28;20044;-77
2024/03/17 10:42:31;;;;;;;13.90;5.87;;;;;;;16.52;64.44;100672.31;31661270;28;20131;-83
2024/03/17 10:57:39;;;;;;;12.27;5.30;;;;;;;15.96;65.80;100653.09;31693693;28;20055;-80
2024/03/17 11:12:44;;;;;;;12.63;5.67;;;;;;;15.35;71.08;100654.97;31691943;28;20109;-80
2024/03/17 11:27:46;;;;;;;12.17;6.80;;;;;;;15.10;72.82;100644.03;31656345;28;20044;-77
2024/03/17 11:43:05;;;;;;;12.17;5.57;;;;;;;14.82;73.91;100640.16;31695904;27;20054;-79
2024/03/17 11:58:15;;;;;;;18.20;9.33;;;;;;;14.74;82.46;100632.59;31661668;28;20055;-79
2024/03/17 12:13:16;;;;;;;12.47;5.67;;;;;;;14.50;77.28;100630.13;31658324;28;20071;-79
2024/03/17 12:28:17;;;;;;;11.10;5.38;;;;;;;14.77;78.99;100620.78;31639197;28;20047;-80
2024/03/17 12:43:18;;;;;;;13.20;6.57;;;;;;;15.06;77.69;100610.56;31639458;28;20398;-78
2024/03/17 13:13:38;;;;;;;10.93;5.50;;;;;;;15.58;77.67;100584.75;31653509;28;20052;-78
2024/03/17 13:28:39;;;;;;;10.73;5.33;;;;;;;15.27;81.63;100587.28;31621136;28;20055;-78
2024/03/17 13:43:40;;;;;;;11.50;6.18;;;;;;;15.12;87.26;100567.78;31618513;28;20136;-80
2024/03/17 13:58:41;;;;;;;13.40;6.43;;;;;;;14.97;89.03;100563.97;31704245;28;20500;-78
2024/03/17 14:13:41;;;;;;;11.63;5.55;;;;;;;14.39;95.38;100558.63;31693523;28;20128;-80
2024/03/17 14:28:42;;;;;;;13.00;6.07;;;;;;;14.26;99.33;100549.59;31695979;28;20082;-78
2024/03/17 14:43:44;;;;;;;12.40;6.97;;;;;;;14.22;98.98;100538.78;31709504;28;20075;-80
2024/03/17 14:58:49;;;;;;;16.53;7.93;;;;;;;14.40;100.00;100537.53;31688131;28;20308;-79
2024/03/17 15:13:50;;;;;;;12.13;5.68;;;;;;;14.12;100.00;100539.09;31670555;28;20063;-80
2024/03/17 15:28:51;;;;;;;12.00;6.72;;;;;;;13.98;100.00;100527.34;31733045;27;20146;-77
2024/03/17 15:43:52;;;;;;;22.87;9.10;;;;;;;14.02;100.00;100532.69;31677930;27;20512;-80
2024/03/17 15:58:53;;;;;;;14.63;6.33;;;;;;;13.93;100.00;100538.03;31651276;27;20043;-82
2024/03/17 16:13:57;;;;;;;15.43;7.13;;;;;;;13.93;100.00;100544.25;31636925;27;20087;-80
2024/03/17 16:28:59;;;;;;;18.07;7.83;;;;;;;13.76;100.00;100545.47;31702182;27;20055;-78
2024/03/17 16:44:05;;;;;;;19.30;9.17;;;;;;;13.81;100.00;100552.38;31664618;27;20497;-81
2024/03/17 16:59:07;;;;;;;18.03;7.40;;;;;;;14.27;100.00;100551.91;31644742;27;20052;-80
2024/03/17 17:14:10;;;;;;;18.47;8.37;;;;;;;14.58;100.00;100540.53;31656649;28;20064;-82
2024/03/17 17:29:11;;;;;;;15.43;7.73;;;;;;;14.56;100.00;100535.50;31670067;28;20060;-79
2024/03/17 17:44:12;;;;;;;17.58;8.15;;;;;;;14.47;100.00;100535.38;31631062;28;20112;-82
2024/03/17 17:59:14;;;;;;;15.60;7.73;;;;;;;14.47;100.00;100538.09;31669446;28;20455;-78
2024/03/17 18:14:15;;;;;;;19.60;9.63;;;;;;;14.29;100.00;100533.13;31662083;27;20068;-82
2024/03/17 18:29:16;;;;;;;16.30;8.43;;;;;;;14.00;100.00;100524.94;31699255;27;20040;-83
2024/03/17 18:44:17;;;;;;;23.60;9.75;;;;;;;13.70;100.00;100522.63;31661683;27;20139;-82
2024/03/17 18:59:19;;;;;;;21.03;10.23;;;;;;;13.52;100.00;100520.34;31644714;28;20055;-82
2024/03/17 19:14:20;;;;;;;18.27;7.73;;;;;;;13.46;100.00;100516.63;31732796;27;20054;-82
2024/03/17 19:29:22;;;;;;;16.80;7.70;;;;;;;13.24;100.00;100505.44;31667465;27;20109;-81
2024/03/17 19:44:23;;;;;;;16.15;6.32;;;;;;;13.04;100.00;100507.47;31660715;28;20104;-83
2024/03/17 19:59:24;;;;;;;29.07;14.07;;;;;;;12.94;100.00;100503.03;31636076;28;20052;-80
2024/03/17 20:14:25;;;;;;;20.88;11.77;;;;;;;13.00;100.00;100495.88;31683690;27;20087;-78
2024/03/17 20:29:27;;;;;;;17.47;8.57;;;;;;;12.89;100.00;100487.19;31693572;27;20035;-80
2024/03/17 20:44:27;;;;;;;27.47;14.00;;;;;;;12.76;100.00;100470.72;31667354;28;20074;-78
2024/03/17 20:59:29;;;;;;;20.53;9.70;;;;;;;12.50;100.00;100464.34;31673747;27;20056;-81
2024/03/17 21:14:29;;;;;;;18.27;8.13;;;;;;;12.34;100.00;100455.34;31677177;28;20117;-80
2024/03/17 21:29:30;;;;;;;20.47;9.03;;;;;;;12.37;100.00;100438.94;31687895;27;20063;-79
2024/03/17 21:44:31;;;;;;;21.70;10.95;;;;;;;12.23;100.00;100426.41;31694852;28;20389;-79
2024/03/17 21:59:33;;;;;;;29.77;11.57;;;;;;;12.03;100.00;100408.56;31699218;27;20058;-80
2024/03/17 22:14:34;;;;;;;26.03;13.60;;;;;;;12.00;100.00;100402.00;31704332;28;20067;-78
2024/03/17 22:29:35;;;;;;;26.93;11.40;;;;;;;11.83;100.00;100398.44;31683797;27;20408;-78
2024/03/17 22:44:36;;;;;;;22.47;9.83;;;;;;;11.83;100.00;100387.56;31694566;27;20059;-78
2024/03/17 22:59:37;;;;;;;17.00;8.50;;;;;;;12.01;100.00;100378.28;31722377;27;20047;-79
2024/03/17 23:14:38;;;;;;;18.85;8.30;;;;;;;11.95;100.00;100380.75;31721245;27;20094;-80
2024/03/17 23:29:39;;;;;;;12.93;5.80;;;;;;;12.05;100.00;100374.28;31673028;28;20123;-78
2024/03/17 23:44:40;;;;;;;16.23;7.60;;;;;;;11.99;100.00;100375.22;31687166;27;20058;-79
2024/03/17 23:59:41;;;;;;;16.70;5.93;;;;;;;12.11;100.00;100366.41;31651569;27;20292;-79
